sensor_id;sensor_type;location;lat;lon;timestamp;P1;durP1;ratioP1;P2;durP2;ratioP2
63286;SDS011;49410;55.708;37.522;2022-10-16T00:02:23;10.27;;;4.32;;
63286;SDS011;49410;55.708;37.522;2022-10-16T00:04:48;8.93;;;3.92;;
63286;SDS011;49410;55.708;37.522;2022-10-16T00:07:14;11.52;;;3.85;;
63286;SDS011;49410;55.708;37.522;2022-10-16T00:09:39;9.00;;;3.63;;
63286;SDS011;49410;55.708;37.522;2022-10-16T00:12:05;10.40;;;3.55;;
63286;SDS011;49410;55.708;37.522;2022-10-16T00:14:32;9.05;;;3.83;;
63286;SDS011;49410;55.708;37.522;2022-10-16T00:16:57;8.82;;;3.58;;
63286;SDS011;49410;55.708;37.522;2022-10-16T00:19:23;8.15;;;3.55;;
63286;SDS011;49410;55.708;37.522;2022-10-16T00:21:48;7.85;;;3.47;;
63286;SDS011;49410;55.708;37.522;2022-10-16T00:24:13;9.27;;;3.42;;
63286;SDS011;49410;55.708;37.522;2022-10-16T00:26:39;8.40;;;3.65;;
63286;SDS011;49410;55.708;37.522;2022-10-16T00:29:05;9.57;;;3.22;;
63286;SDS011;49410;55.708;37.522;2022-10-16T00:31:31;8.52;;;3.33;;
63286;SDS011;49410;55.708;37.522;2022-10-16T00:33:57;9.05;;;3.20;;
63286;SDS011;49410;55.708;37.522;2022-10-16T00:36:23;6.47;;;3.10;;
63286;SDS011;49410;55.708;37.522;2022-10-16T00:38:51;9.32;;;3.83;;
63286;SDS011;49410;55.708;37.522;2022-10-16T00:41:20;8.55;;;3.50;;
63286;SDS011;49410;55.708;37.522;2022-10-16T00:46:24;7.05;;;3.28;;
63286;SDS011;49410;55.708;37.522;2022-10-16T00:51:21;9.80;;;3.13;;
63286;SDS011;49410;55.708;37.522;2022-10-16T00:53:51;7.22;;;3.25;;
63286;SDS011;49410;55.708;37.522;2022-10-16T00:56:17;7.35;;;3.25;;
63286;SDS011;49410;55.708;37.522;2022-10-16T00:58:43;8.38;;;3.65;;
63286;SDS011;49410;55.708;37.522;2022-10-16T01:01:09;8.50;;;3.17;;
63286;SDS011;49410;55.708;37.522;2022-10-16T01:03:35;7.75;;;3.65;;
63286;SDS011;49410;55.708;37.522;2022-10-16T01:08:44;7.47;;;3.70;;
63286;SDS011;49410;55.708;37.522;2022-10-16T01:11:42;8.25;;;3.28;;
63286;SDS011;49410;55.708;37.522;2022-10-16T01:14:57;7.68;;;3.05;;
63286;SDS011;49410;55.708;37.522;2022-10-16T01:17:12;11.13;;;3.70;;
63286;SDS011;49410;55.708;37.522;2022-10-16T01:22:19;9.85;;;3.42;;
63286;SDS011;49410;55.708;37.522;2022-10-16T01:24:50;9.60;;;3.38;;
63286;SDS011;49410;55.708;37.522;2022-10-16T01:30:02;8.95;;;3.50;;
63286;SDS011;49410;55.708;37.522;2022-10-16T01:32:38;8.63;;;3.70;;
63286;SDS011;49410;55.708;37.522;2022-10-16T01:38:25;8.45;;;3.28;;
63286;SDS011;49410;55.708;37.522;2022-10-16T01:40:58;8.30;;;3.95;;
63286;SDS011;49410;55.708;37.522;2022-10-16T01:43:28;8.05;;;3.35;;
63286;SDS011;49410;55.708;37.522;2022-10-16T01:45:59;13.35;;;3.78;;
63286;SDS011;49410;55.708;37.522;2022-10-16T01:48:26;9.65;;;3.63;;
63286;SDS011;49410;55.708;37.522;2022-10-16T01:51:01;8.15;;;3.58;;
63286;SDS011;49410;55.708;37.522;2022-10-16T01:53:30;9.13;;;3.20;;
63286;SDS011;49410;55.708;37.522;2022-10-16T01:55:56;8.38;;;3.38;;
63286;SDS011;49410;55.708;37.522;2022-10-16T01:58:25;8.27;;;3.97;;
63286;SDS011;49410;55.708;37.522;2022-10-16T02:00:55;9.43;;;3.35;;
63286;SDS011;49410;55.708;37.522;2022-10-16T02:03:22;8.90;;;3.17;;
63286;SDS011;49410;55.708;37.522;2022-10-16T02:05:51;9.15;;;3.40;;
63286;SDS011;49410;55.708;37.522;2022-10-16T02:08:21;8.43;;;3.67;;
63286;SDS011;49410;55.708;37.522;2022-10-16T02:10:49;13.70;;;3.47;;
63286;SDS011;49410;55.708;37.522;2022-10-16T02:13:30;8.02;;;3.38;;
63286;SDS011;49410;55.708;37.522;2022-10-16T02:15:59;8.20;;;3.40;;
63286;SDS011;49410;55.708;37.522;2022-10-16T02:18:25;8.57;;;3.35;;
63286;SDS011;49410;55.708;37.522;2022-10-16T02:21:02;8.32;;;3.20;;
63286;SDS011;49410;55.708;37.522;2022-10-16T02:23:51;7.07;;;3.90;;
63286;SDS011;49410;55.708;37.522;2022-10-16T02:26:42;8.38;;;3.30;;
63286;SDS011;49410;55.708;37.522;2022-10-16T02:29:24;9.63;;;4.40;;
63286;SDS011;49410;55.708;37.522;2022-10-16T02:31:52;7.18;;;3.90;;
63286;SDS011;49410;55.708;37.522;2022-10-16T02:34:25;8.65;;;3.60;;
63286;SDS011;49410;55.708;37.522;2022-10-16T02:36:53;11.43;;;4.00;;
63286;SDS011;49410;55.708;37.522;2022-10-16T02:39:20;11.63;;;4.35;;
63286;SDS011;49410;55.708;37.522;2022-10-16T02:41:46;10.20;;;3.83;;
63286;SDS011;49410;55.708;37.522;2022-10-16T02:44:12;9.10;;;3.78;;
63286;SDS011;49410;55.708;37.522;2022-10-16T02:46:38;9.20;;;3.80;;
63286;SDS011;49410;55.708;37.522;2022-10-16T02:49:03;9.07;;;3.88;;
63286;SDS011;49410;55.708;37.522;2022-10-16T02:51:29;6.70;;;3.10;;
63286;SDS011;49410;55.708;37.522;2022-10-16T02:53:54;7.80;;;3.33;;
63286;SDS011;49410;55.708;37.522;2022-10-16T02:56:20;9.88;;;3.17;;
63286;SDS011;49410;55.708;37.522;2022-10-16T02:58:46;7.30;;;3.20;;
63286;SDS011;49410;55.708;37.522;2022-10-16T03:01:11;6.93;;;3.17;;
63286;SDS011;49410;55.708;37.522;2022-10-16T03:03:38;9.63;;;2.90;;
63286;SDS011;49410;55.708;37.522;2022-10-16T03:06:03;10.50;;;3.35;;
63286;SDS011;49410;55.708;37.522;2022-10-16T03:08:29;8.43;;;3.40;;
63286;SDS011;49410;55.708;37.522;2022-10-16T03:10:54;8.02;;;3.08;;
63286;SDS011;49410;55.708;37.522;2022-10-16T03:13:20;9.85;;;3.25;;
63286;SDS011;49410;55.708;37.522;2022-10-16T03:15:46;8.10;;;3.35;;
63286;SDS011;49410;55.708;37.522;2022-10-16T03:18:11;8.07;;;3.53;;
63286;SDS011;49410;55.708;37.522;2022-10-16T03:20:37;12.88;;;3.35;;
63286;SDS011;49410;55.708;37.522;2022-10-16T03:23:03;7.32;;;3.20;;
63286;SDS011;49410;55.708;37.522;2022-10-16T03:25:29;9.23;;;3.80;;
63286;SDS011;49410;55.708;37.522;2022-10-16T03:27:54;8.73;;;3.70;;
63286;SDS011;49410;55.708;37.522;2022-10-16T03:30:19;8.73;;;3.45;;
63286;SDS011;49410;55.708;37.522;2022-10-16T03:32:45;12.18;;;3.35;;
63286;SDS011;49410;55.708;37.522;2022-10-16T03:35:11;7.80;;;3.42;;
63286;SDS011;49410;55.708;37.522;2022-10-16T03:37:37;8.73;;;3.78;;
63286;SDS011;49410;55.708;37.522;2022-10-16T03:40:03;8.05;;;3.75;;
63286;SDS011;49410;55.708;37.522;2022-10-16T03:42:29;9.70;;;3.90;;
63286;SDS011;49410;55.708;37.522;2022-10-16T03:44:54;11.10;;;4.20;;
63286;SDS011;49410;55.708;37.522;2022-10-16T03:47:20;8.32;;;3.17;;
63286;SDS011;49410;55.708;37.522;2022-10-16T03:49:48;8.10;;;4.10;;
63286;SDS011;49410;55.708;37.522;2022-10-16T03:52:13;8.65;;;3.85;;
63286;SDS011;49410;55.708;37.522;2022-10-16T03:54:39;9.07;;;3.08;;
63286;SDS011;49410;55.708;37.522;2022-10-16T03:57:04;9.63;;;3.60;;
63286;SDS011;49410;55.708;37.522;2022-10-16T03:59:30;9.63;;;3.53;;
63286;SDS011;49410;55.708;37.522;2022-10-16T04:01:56;8.63;;;3.25;;
63286;SDS011;49410;55.708;37.522;2022-10-16T04:04:21;10.30;;;3.92;;
63286;SDS011;49410;55.708;37.522;2022-10-16T04:06:47;10.38;;;3.63;;
63286;SDS011;49410;55.708;37.522;2022-10-16T04:09:12;7.03;;;3.42;;
63286;SDS011;49410;55.708;37.522;2022-10-16T04:11:38;9.73;;;3.92;;
63286;SDS011;49410;55.708;37.522;2022-10-16T04:14:04;9.00;;;3.30;;
63286;SDS011;49410;55.708;37.522;2022-10-16T04:16:29;8.95;;;3.90;;
63286;SDS011;49410;55.708;37.522;2022-10-16T04:18:55;11.73;;;4.20;;
63286;SDS011;49410;55.708;37.522;2022-10-16T04:21:20;9.48;;;3.45;;
63286;SDS011;49410;55.708;37.522;2022-10-16T04:23:46;7.50;;;3.38;;
63286;SDS011;49410;55.708;37.522;2022-10-16T04:26:11;8.57;;;3.50;;
63286;SDS011;49410;55.708;37.522;2022-10-16T04:28:37;9.38;;;3.55;;
63286;SDS011;49410;55.708;37.522;2022-10-16T04:31:05;8.32;;;3.47;;
63286;SDS011;49410;55.708;37.522;2022-10-16T04:33:31;9.27;;;3.30;;
63286;SDS011;49410;55.708;37.522;2022-10-16T04:35:57;7.60;;;3.80;;
63286;SDS011;49410;55.708;37.522;2022-10-16T04:38:24;9.45;;;3.90;;
63286;SDS011;49410;55.708;37.522;2022-10-16T04:40:50;8.27;;;3.70;;
63286;SDS011;49410;55.708;37.522;2022-10-16T04:43:16;9.82;;;3.45;;
63286;SDS011;49410;55.708;37.522;2022-10-16T04:45:42;7.85;;;4.30;;
63286;SDS011;49410;55.708;37.522;2022-10-16T04:48:07;7.95;;;3.70;;
63286;SDS011;49410;55.708;37.522;2022-10-16T04:50:33;7.85;;;3.33;;
63286;SDS011;49410;55.708;37.522;2022-10-16T04:52:58;11.65;;;3.55;;
63286;SDS011;49410;55.708;37.522;2022-10-16T04:55:24;8.20;;;3.63;;
63286;SDS011;49410;55.708;37.522;2022-10-16T04:57:50;9.40;;;3.45;;
63286;SDS011;49410;55.708;37.522;2022-10-16T05:00:15;10.65;;;4.72;;
63286;SDS011;49410;55.708;37.522;2022-10-16T05:02:41;9.85;;;4.25;;
63286;SDS011;49410;55.708;37.522;2022-10-16T05:05:06;10.10;;;4.38;;
63286;SDS011;49410;55.708;37.522;2022-10-16T05:07:32;9.30;;;4.13;;
63286;SDS011;49410;55.708;37.522;2022-10-16T05:09:57;10.48;;;3.72;;
63286;SDS011;49410;55.708;37.522;2022-10-16T05:12:23;8.30;;;3.67;;
63286;SDS011;49410;55.708;37.522;2022-10-16T05:14:48;9.80;;;3.78;;
63286;SDS011;49410;55.708;37.522;2022-10-16T05:17:14;9.77;;;4.18;;
63286;SDS011;49410;55.708;37.522;2022-10-16T05:19:39;7.75;;;3.53;;
63286;SDS011;49410;55.708;37.522;2022-10-16T05:22:05;8.32;;;3.35;;
63286;SDS011;49410;55.708;37.522;2022-10-16T05:24:30;9.55;;;3.80;;
63286;SDS011;49410;55.708;37.522;2022-10-16T05:26:56;7.57;;;3.55;;
63286;SDS011;49410;55.708;37.522;2022-10-16T05:29:22;10.70;;;3.97;;
63286;SDS011;49410;55.708;37.522;2022-10-16T05:31:49;8.10;;;3.72;;
63286;SDS011;49410;55.708;37.522;2022-10-16T05:34:16;11.20;;;3.75;;
63286;SDS011;49410;55.708;37.522;2022-10-16T05:36:42;10.88;;;4.20;;
63286;SDS011;49410;55.708;37.522;2022-10-16T05:39:07;9.95;;;3.85;;
63286;SDS011;49410;55.708;37.522;2022-10-16T05:41:33;10.68;;;4.75;;
63286;SDS011;49410;55.708;37.522;2022-10-16T05:43:58;16.73;;;4.65;;
63286;SDS011;49410;55.708;37.522;2022-10-16T05:46:23;11.23;;;4.20;;
63286;SDS011;49410;55.708;37.522;2022-10-16T05:48:51;11.80;;;4.20;;
63286;SDS011;49410;55.708;37.522;2022-10-16T05:51:18;10.00;;;4.50;;
63286;SDS011;49410;55.708;37.522;2022-10-16T05:53:43;10.50;;;4.50;;
63286;SDS011;49410;55.708;37.522;2022-10-16T05:56:09;13.10;;;4.68;;
63286;SDS011;49410;55.708;37.522;2022-10-16T05:58:37;10.73;;;4.80;;
63286;SDS011;49410;55.708;37.522;2022-10-16T06:01:15;12.38;;;4.50;;
63286;SDS011;49410;55.708;37.522;2022-10-16T06:03:42;14.48;;;4.95;;
63286;SDS011;49410;55.708;37.522;2022-10-16T06:08:39;10.15;;;4.85;;
63286;SDS011;49410;55.708;37.522;2022-10-16T06:11:07;11.05;;;4.72;;
63286;SDS011;49410;55.708;37.522;2022-10-16T06:13:35;9.93;;;4.78;;
63286;SDS011;49410;55.708;37.522;2022-10-16T06:16:01;12.00;;;4.70;;
63286;SDS011;49410;55.708;37.522;2022-10-16T06:18:28;11.50;;;4.63;;
63286;SDS011;49410;55.708;37.522;2022-10-16T06:20:54;12.90;;;5.00;;
63286;SDS011;49410;55.708;37.522;2022-10-16T06:23:21;11.57;;;4.80;;
63286;SDS011;49410;55.708;37.522;2022-10-16T06:25:46;12.50;;;5.18;;
63286;SDS011;49410;55.708;37.522;2022-10-16T06:28:13;9.98;;;4.68;;
63286;SDS011;49410;55.708;37.522;2022-10-16T06:30:39;12.07;;;4.82;;
63286;SDS011;49410;55.708;37.522;2022-10-16T06:33:04;10.95;;;4.40;;
63286;SDS011;49410;55.708;37.522;2022-10-16T06:35:30;11.55;;;4.57;;
63286;SDS011;49410;55.708;37.522;2022-10-16T06:37:57;15.15;;;4.88;;
63286;SDS011;49410;55.708;37.522;2022-10-16T06:40:22;11.95;;;5.32;;
63286;SDS011;49410;55.708;37.522;2022-10-16T06:42:48;9.93;;;4.93;;
63286;SDS011;49410;55.708;37.522;2022-10-16T06:45:13;14.25;;;5.70;;
63286;SDS011;49410;55.708;37.522;2022-10-16T06:47:39;14.23;;;5.07;;
63286;SDS011;49410;55.708;37.522;2022-10-16T06:50:04;13.73;;;5.28;;
63286;SDS011;49410;55.708;37.522;2022-10-16T06:52:32;11.63;;;5.15;;
63286;SDS011;49410;55.708;37.522;2022-10-16T06:54:59;10.88;;;4.47;;
63286;SDS011;49410;55.708;37.522;2022-10-16T06:57:25;13.25;;;5.55;;
63286;SDS011;49410;55.708;37.522;2022-10-16T06:59:50;12.57;;;4.80;;
63286;SDS011;49410;55.708;37.522;2022-10-16T07:02:16;10.88;;;5.00;;
63286;SDS011;49410;55.708;37.522;2022-10-16T07:04:41;13.02;;;5.60;;
63286;SDS011;49410;55.708;37.522;2022-10-16T07:07:07;14.80;;;4.97;;
63286;SDS011;49410;55.708;37.522;2022-10-16T07:09:32;14.05;;;6.07;;
63286;SDS011;49410;55.708;37.522;2022-10-16T07:11:58;11.52;;;4.43;;
63286;SDS011;49410;55.708;37.522;2022-10-16T07:14:23;9.95;;;4.70;;
63286;SDS011;49410;55.708;37.522;2022-10-16T07:16:49;11.43;;;4.65;;
63286;SDS011;49410;55.708;37.522;2022-10-16T07:19:14;10.48;;;4.68;;
63286;SDS011;49410;55.708;37.522;2022-10-16T07:21:42;13.30;;;4.85;;
63286;SDS011;49410;55.708;37.522;2022-10-16T07:24:12;11.98;;;5.53;;
63286;SDS011;49410;55.708;37.522;2022-10-16T07:26:39;10.15;;;4.85;;
63286;SDS011;49410;55.708;37.522;2022-10-16T07:29:06;13.00;;;4.68;;
63286;SDS011;49410;55.708;37.522;2022-10-16T07:31:38;13.43;;;5.05;;
63286;SDS011;49410;55.708;37.522;2022-10-16T07:34:04;12.07;;;4.97;;
63286;SDS011;49410;55.708;37.522;2022-10-16T07:36:30;13.75;;;4.65;;
63286;SDS011;49410;55.708;37.522;2022-10-16T07:38:55;12.13;;;5.25;;
63286;SDS011;49410;55.708;37.522;2022-10-16T07:41:21;14.50;;;4.88;;
63286;SDS011;49410;55.708;37.522;2022-10-16T07:43:47;18.58;;;5.07;;
63286;SDS011;49410;55.708;37.522;2022-10-16T07:46:13;9.77;;;4.90;;
63286;SDS011;49410;55.708;37.522;2022-10-16T07:48:39;11.18;;;4.65;;
63286;SDS011;49410;55.708;37.522;2022-10-16T07:51:06;12.82;;;6.03;;
63286;SDS011;49410;55.708;37.522;2022-10-16T07:53:32;11.98;;;4.45;;
63286;SDS011;49410;55.708;37.522;2022-10-16T07:56:01;10.75;;;4.60;;
63286;SDS011;49410;55.708;37.522;2022-10-16T07:58:28;11.07;;;5.15;;
63286;SDS011;49410;55.708;37.522;2022-10-16T08:00:54;11.95;;;4.95;;
63286;SDS011;49410;55.708;37.522;2022-10-16T08:03:20;16.13;;;5.70;;
63286;SDS011;49410;55.708;37.522;2022-10-16T08:05:46;11.05;;;5.00;;
63286;SDS011;49410;55.708;37.522;2022-10-16T08:08:15;13.18;;;5.40;;
63286;SDS011;49410;55.708;37.522;2022-10-16T08:10:42;14.65;;;4.32;;
63286;SDS011;49410;55.708;37.522;2022-10-16T08:13:07;12.57;;;4.95;;
63286;SDS011;49410;55.708;37.522;2022-10-16T08:15:33;15.80;;;5.30;;
63286;SDS011;49410;55.708;37.522;2022-10-16T08:18:02;12.45;;;4.93;;
63286;SDS011;49410;55.708;37.522;2022-10-16T08:20:29;12.02;;;5.25;;
63286;SDS011;49410;55.708;37.522;2022-10-16T08:22:57;9.38;;;4.63;;
63286;SDS011;49410;55.708;37.522;2022-10-16T08:25:22;13.02;;;4.38;;
63286;SDS011;49410;55.708;37.522;2022-10-16T08:27:48;9.32;;;4.78;;
63286;SDS011;49410;55.708;37.522;2022-10-16T08:30:15;14.02;;;4.30;;
63286;SDS011;49410;55.708;37.522;2022-10-16T08:32:41;14.82;;;5.40;;
63286;SDS011;49410;55.708;37.522;2022-10-16T08:35:08;10.30;;;3.85;;
63286;SDS011;49410;55.708;37.522;2022-10-16T08:37:35;10.15;;;3.97;;
63286;SDS011;49410;55.708;37.522;2022-10-16T08:40:00;12.32;;;4.47;;
63286;SDS011;49410;55.708;37.522;2022-10-16T08:50:19;13.55;;;3.88;;
63286;SDS011;49410;55.708;37.522;2022-10-16T08:52:49;11.88;;;4.30;;
63286;SDS011;49410;55.708;37.522;2022-10-16T08:57:58;10.32;;;3.90;;
63286;SDS011;49410;55.708;37.522;2022-10-16T09:00:25;13.85;;;3.83;;
63286;SDS011;49410;55.708;37.522;2022-10-16T09:02:59;11.32;;;3.40;;
63286;SDS011;49410;55.708;37.522;2022-10-16T09:16:34;12.07;;;3.40;;
63286;SDS011;49410;55.708;37.522;2022-10-16T09:21:40;11.52;;;3.55;;
63286;SDS011;49410;55.708;37.522;2022-10-16T09:24:12;9.07;;;3.33;;
63286;SDS011;49410;55.708;37.522;2022-10-16T09:26:38;6.65;;;3.10;;
63286;SDS011;49410;55.708;37.522;2022-10-16T09:29:04;7.20;;;3.53;;
63286;SDS011;49410;55.708;37.522;2022-10-16T09:31:29;8.95;;;3.33;;
63286;SDS011;49410;55.708;37.522;2022-10-16T09:33:57;11.65;;;2.65;;
63286;SDS011;49410;55.708;37.522;2022-10-16T09:36:25;7.90;;;2.97;;
63286;SDS011;49410;55.708;37.522;2022-10-16T09:39:06;8.07;;;2.58;;
63286;SDS011;49410;55.708;37.522;2022-10-16T09:41:34;6.82;;;2.88;;
63286;SDS011;49410;55.708;37.522;2022-10-16T09:44:02;7.72;;;3.42;;
63286;SDS011;49410;55.708;37.522;2022-10-16T09:46:31;6.70;;;2.95;;
63286;SDS011;49410;55.708;37.522;2022-10-16T09:49:00;6.82;;;2.03;;
63286;SDS011;49410;55.708;37.522;2022-10-16T09:51:34;11.48;;;2.92;;
63286;SDS011;49410;55.708;37.522;2022-10-16T09:54:13;6.78;;;2.83;;
63286;SDS011;49410;55.708;37.522;2022-10-16T09:56:40;8.68;;;3.05;;
63286;SDS011;49410;55.708;37.522;2022-10-16T09:59:16;8.20;;;2.65;;
63286;SDS011;49410;55.708;37.522;2022-10-16T10:01:48;6.57;;;2.95;;
63286;SDS011;49410;55.708;37.522;2022-10-16T10:04:19;11.70;;;3.53;;
63286;SDS011;49410;55.708;37.522;2022-10-16T10:06:53;8.35;;;2.83;;
63286;SDS011;49410;55.708;37.522;2022-10-16T10:14:22;7.88;;;3.15;;
63286;SDS011;49410;55.708;37.522;2022-10-16T10:16:48;8.40;;;2.58;;
63286;SDS011;49410;55.708;37.522;2022-10-16T10:19:22;6.53;;;3.15;;
63286;SDS011;49410;55.708;37.522;2022-10-16T10:21:49;6.93;;;2.95;;
63286;SDS011;49410;55.708;37.522;2022-10-16T10:24:17;7.88;;;3.10;;
63286;SDS011;49410;55.708;37.522;2022-10-16T10:29:37;9.15;;;2.78;;
63286;SDS011;49410;55.708;37.522;2022-10-16T10:32:37;9.68;;;3.13;;
63286;SDS011;49410;55.708;37.522;2022-10-16T10:35:16;11.13;;;3.20;;
63286;SDS011;49410;55.708;37.522;2022-10-16T10:43:32;9.05;;;3.40;;
63286;SDS011;49410;55.708;37.522;2022-10-16T10:46:06;6.28;;;2.88;;
63286;SDS011;49410;55.708;37.522;2022-10-16T10:48:50;6.78;;;3.10;;
63286;SDS011;49410;55.708;37.522;2022-10-16T11:06:40;6.35;;;3.03;;
63286;SDS011;49410;55.708;37.522;2022-10-16T11:08:53;6.40;;;2.58;;
63286;SDS011;49410;55.708;37.522;2022-10-16T11:11:25;7.35;;;2.97;;
63286;SDS011;49410;55.708;37.522;2022-10-16T11:14:08;6.43;;;2.38;;
63286;SDS011;49410;55.708;37.522;2022-10-16T11:17:30;6.45;;;2.58;;
63286;SDS011;49410;55.708;37.522;2022-10-16T11:19:49;7.07;;;3.03;;
63286;SDS011;49410;55.708;37.522;2022-10-16T11:22:35;8.70;;;2.70;;
63286;SDS011;49410;55.708;37.522;2022-10-16T11:30:39;8.30;;;3.13;;
63286;SDS011;49410;55.708;37.522;2022-10-16T11:40:54;6.22;;;3.08;;
63286;SDS011;49410;55.708;37.522;2022-10-16T11:43:36;8.95;;;3.05;;
63286;SDS011;49410;55.708;37.522;2022-10-16T11:46:10;8.98;;;3.75;;
63286;SDS011;49410;55.708;37.522;2022-10-16T11:59:26;7.13;;;2.53;;
63286;SDS011;49410;55.708;37.522;2022-10-16T12:07:13;11.80;;;3.10;;
63286;SDS011;49410;55.708;37.522;2022-10-16T12:09:42;8.15;;;3.17;;
63286;SDS011;49410;55.708;37.522;2022-10-16T12:12:28;7.90;;;3.33;;
63286;SDS011;49410;55.708;37.522;2022-10-16T12:15:15;8.20;;;3.08;;
63286;SDS011;49410;55.708;37.522;2022-10-16T12:17:56;7.28;;;3.40;;
63286;SDS011;49410;55.708;37.522;2022-10-16T12:20:23;8.20;;;3.58;;
63286;SDS011;49410;55.708;37.522;2022-10-16T12:25:25;8.80;;;3.15;;
63286;SDS011;49410;55.708;37.522;2022-10-16T12:27:54;7.20;;;2.78;;
63286;SDS011;49410;55.708;37.522;2022-10-16T12:30:22;6.60;;;2.70;;
63286;SDS011;49410;55.708;37.522;2022-10-16T12:32:53;5.80;;;2.17;;
63286;SDS011;49410;55.708;37.522;2022-10-16T12:35:26;10.32;;;3.05;;
63286;SDS011;49410;55.708;37.522;2022-10-16T12:38:04;9.43;;;3.10;;
63286;SDS011;49410;55.708;37.522;2022-10-16T12:40:32;11.48;;;3.13;;
63286;SDS011;49410;55.708;37.522;2022-10-16T12:43:12;11.63;;;3.13;;
63286;SDS011;49410;55.708;37.522;2022-10-16T12:45:46;7.93;;;2.83;;
63286;SDS011;49410;55.708;37.522;2022-10-16T12:48:19;7.85;;;2.92;;
63286;SDS011;49410;55.708;37.522;2022-10-16T12:50:46;10.05;;;3.45;;
63286;SDS011;49410;55.708;37.522;2022-10-16T12:53:19;6.50;;;3.05;;
63286;SDS011;49410;55.708;37.522;2022-10-16T12:55:52;6.68;;;2.80;;
63286;SDS011;49410;55.708;37.522;2022-10-16T13:17:52;8.15;;;2.83;;
63286;SDS011;49410;55.708;37.522;2022-10-16T13:28:29;8.23;;;3.28;;
63286;SDS011;49410;55.708;37.522;2022-10-16T13:30:58;7.35;;;3.00;;
63286;SDS011;49410;55.708;37.522;2022-10-16T13:36:26;8.93;;;3.38;;
63286;SDS011;49410;55.708;37.522;2022-10-16T13:39:12;9.43;;;2.72;;
63286;SDS011;49410;55.708;37.522;2022-10-16T13:47:16;6.38;;;2.95;;
63286;SDS011;49410;55.708;37.522;2022-10-16T13:49:41;10.30;;;3.67;;
63286;SDS011;49410;55.708;37.522;2022-10-16T13:52:15;8.00;;;3.10;;
63286;SDS011;49410;55.708;37.522;2022-10-16T13:57:14;9.23;;;3.40;;
63286;SDS011;49410;55.708;37.522;2022-10-16T13:59:40;10.85;;;3.75;;
63286;SDS011;49410;55.708;37.522;2022-10-16T14:05:02;9.18;;;4.07;;
63286;SDS011;49410;55.708;37.522;2022-10-16T14:07:34;8.27;;;3.55;;
63286;SDS011;49410;55.708;37.522;2022-10-16T14:10:04;10.68;;;3.50;;
63286;SDS011;49410;55.708;37.522;2022-10-16T14:12:32;12.88;;;3.20;;
63286;SDS011;49410;55.708;37.522;2022-10-16T14:14:59;10.05;;;3.78;;
63286;SDS011;49410;55.708;37.522;2022-10-16T14:17:26;9.73;;;3.85;;
63286;SDS011;49410;55.708;37.522;2022-10-16T14:19:59;9.45;;;3.00;;
63286;SDS011;49410;55.708;37.522;2022-10-16T14:22:31;8.35;;;3.70;;
63286;SDS011;49410;55.708;37.522;2022-10-16T14:24:58;8.90;;;3.63;;
63286;SDS011;49410;55.708;37.522;2022-10-16T14:27:28;9.40;;;4.05;;
63286;SDS011;49410;55.708;37.522;2022-10-16T14:33:01;9.95;;;3.20;;
63286;SDS011;49410;55.708;37.522;2022-10-16T14:35:32;10.10;;;3.13;;
63286;SDS011;49410;55.708;37.522;2022-10-16T14:38:03;12.50;;;4.03;;
63286;SDS011;49410;55.708;37.522;2022-10-16T14:40:36;9.80;;;4.50;;
63286;SDS011;49410;55.708;37.522;2022-10-16T14:43:03;9.43;;;3.67;;
63286;SDS011;49410;55.708;37.522;2022-10-16T14:45:30;12.18;;;4.20;;
63286;SDS011;49410;55.708;37.522;2022-10-16T14:48:00;8.88;;;4.15;;
63286;SDS011;49410;55.708;37.522;2022-10-16T14:50:29;11.93;;;4.47;;
63286;SDS011;49410;55.708;37.522;2022-10-16T14:52:55;12.25;;;4.57;;
63286;SDS011;49410;55.708;37.522;2022-10-16T14:55:21;10.20;;;4.35;;
63286;SDS011;49410;55.708;37.522;2022-10-16T14:57:46;9.20;;;4.70;;
63286;SDS011;49410;55.708;37.522;2022-10-16T15:00:22;10.52;;;4.30;;
63286;SDS011;49410;55.708;37.522;2022-10-16T15:02:49;9.88;;;4.43;;
63286;SDS011;49410;55.708;37.522;2022-10-16T15:07:43;11.07;;;4.32;;
63286;SDS011;49410;55.708;37.522;2022-10-16T15:10:10;9.75;;;4.10;;
63286;SDS011;49410;55.708;37.522;2022-10-16T15:12:36;12.30;;;4.55;;
63286;SDS011;49410;55.708;37.522;2022-10-16T15:15:08;11.05;;;4.40;;
63286;SDS011;49410;55.708;37.522;2022-10-16T15:17:49;10.10;;;3.85;;
63286;SDS011;49410;55.708;37.522;2022-10-16T15:20:20;11.93;;;4.05;;
63286;SDS011;49410;55.708;37.522;2022-10-16T15:22:46;11.07;;;4.60;;
63286;SDS011;49410;55.708;37.522;2022-10-16T15:25:20;9.45;;;4.22;;
63286;SDS011;49410;55.708;37.522;2022-10-16T15:27:54;9.20;;;3.88;;
63286;SDS011;49410;55.708;37.522;2022-10-16T15:30:20;10.40;;;4.32;;
63286;SDS011;49410;55.708;37.522;2022-10-16T15:32:46;10.27;;;4.40;;
63286;SDS011;49410;55.708;37.522;2022-10-16T15:35:12;9.93;;;3.80;;
63286;SDS011;49410;55.708;37.522;2022-10-16T15:37:37;13.10;;;4.45;;
63286;SDS011;49410;55.708;37.522;2022-10-16T15:40:03;11.18;;;3.83;;
63286;SDS011;49410;55.708;37.522;2022-10-16T15:42:29;9.02;;;4.05;;
63286;SDS011;49410;55.708;37.522;2022-10-16T15:44:54;10.20;;;3.50;;
63286;SDS011;49410;55.708;37.522;2022-10-16T15:47:19;9.02;;;3.65;;
63286;SDS011;49410;55.708;37.522;2022-10-16T15:49:45;8.02;;;4.15;;
63286;SDS011;49410;55.708;37.522;2022-10-16T15:52:11;9.10;;;3.33;;
63286;SDS011;49410;55.708;37.522;2022-10-16T15:54:37;9.32;;;3.20;;
63286;SDS011;49410;55.708;37.522;2022-10-16T15:57:02;8.43;;;3.95;;
63286;SDS011;49410;55.708;37.522;2022-10-16T15:59:28;8.77;;;4.13;;
63286;SDS011;49410;55.708;37.522;2022-10-16T16:01:53;8.52;;;3.05;;
63286;SDS011;49410;55.708;37.522;2022-10-16T16:04:19;8.13;;;3.55;;
63286;SDS011;49410;55.708;37.522;2022-10-16T16:06:44;9.00;;;3.38;;
63286;SDS011;49410;55.708;37.522;2022-10-16T16:09:11;7.90;;;3.45;;
63286;SDS011;49410;55.708;37.522;2022-10-16T16:11:37;9.40;;;3.28;;
63286;SDS011;49410;55.708;37.522;2022-10-16T16:14:04;9.25;;;3.10;;
63286;SDS011;49410;55.708;37.522;2022-10-16T16:16:31;10.30;;;3.45;;
63286;SDS011;49410;55.708;37.522;2022-10-16T16:19:01;12.45;;;3.38;;
63286;SDS011;49410;55.708;37.522;2022-10-16T16:21:27;7.55;;;3.40;;
63286;SDS011;49410;55.708;37.522;2022-10-16T16:23:54;8.82;;;4.07;;
63286;SDS011;49410;55.708;37.522;2022-10-16T16:26:26;10.18;;;3.67;;
63286;SDS011;49410;55.708;37.522;2022-10-16T16:28:57;12.90;;;4.18;;
63286;SDS011;49410;55.708;37.522;2022-10-16T16:31:23;9.00;;;3.03;;
63286;SDS011;49410;55.708;37.522;2022-10-16T16:33:49;9.65;;;3.70;;
63286;SDS011;49410;55.708;37.522;2022-10-16T16:36:16;9.50;;;4.05;;
63286;SDS011;49410;55.708;37.522;2022-10-16T16:38:43;9.93;;;3.88;;
63286;SDS011;49410;55.708;37.522;2022-10-16T16:41:16;9.35;;;3.25;;
63286;SDS011;49410;55.708;37.522;2022-10-16T16:43:48;7.10;;;3.20;;
63286;SDS011;49410;55.708;37.522;2022-10-16T16:46:16;8.50;;;4.13;;
63286;SDS011;49410;55.708;37.522;2022-10-16T16:48:42;10.70;;;3.67;;
63286;SDS011;49410;55.708;37.522;2022-10-16T16:51:12;10.05;;;4.07;;
63286;SDS011;49410;55.708;37.522;2022-10-16T16:53:45;9.18;;;3.45;;
63286;SDS011;49410;55.708;37.522;2022-10-16T16:56:13;9.45;;;3.25;;
63286;SDS011;49410;55.708;37.522;2022-10-16T16:58:39;9.75;;;3.78;;
63286;SDS011;49410;55.708;37.522;2022-10-16T17:01:04;9.77;;;3.58;;
63286;SDS011;49410;55.708;37.522;2022-10-16T17:03:31;8.50;;;4.22;;
63286;SDS011;49410;55.708;37.522;2022-10-16T17:06:00;10.80;;;4.28;;
63286;SDS011;49410;55.708;37.522;2022-10-16T17:08:27;10.32;;;4.82;;